sensor_id;sensor_type;location;lat;lon;timestamp;pressure;altitude;pressure_sealevel;temperature;humidity
77572;BME280;67214;47.454;18.966;2023-11-19T00:00:29;100799.14;;;2.09;77.01
77572;BME280;67214;47.454;18.966;2023-11-19T00:02:56;100807.31;;;2.00;77.46
77572;BME280;67214;47.454;18.966;2023-11-19T00:05:24;100800.70;;;1.90;78.65
77572;BME280;67214;47.454;18.966;2023-11-19T00:07:51;100802.62;;;1.85;78.46
77572;BME280;67214;47.454;18.966;2023-11-19T00:10:19;100794.44;;;1.82;78.43
77572;BME280;67214;47.454;18.966;2023-11-19T00:12:48;100780.63;;;1.79;78.85
77572;BME280;67214;47.454;18.966;2023-11-19T00:15:17;100793.89;;;1.73;79.27
77572;BME280;67214;47.454;18.966;2023-11-19T00:17:46;100797.36;;;1.73;79.31
77572;BME280;67214;47.454;18.966;2023-11-19T00:20:17;100781.12;;;1.64;79.42
77572;BME280;67214;47.454;18.966;2023-11-19T00:22:45;100791.98;;;1.65;80.10
77572;BME280;67214;47.454;18.966;2023-11-19T00:25:14;100795.42;;;1.67;79.73
77572;BME280;67214;47.454;18.966;2023-11-19T00:27:42;100812.19;;;1.60;80.09
77572;BME280;67214;47.454;18.966;2023-11-19T00:30:13;100811.14;;;1.52;80.65
77572;BME280;67214;47.454;18.966;2023-11-19T00:32:41;100815.17;;;1.49;80.81
77572;BME280;67214;47.454;18.966;2023-11-19T00:35:09;100820.44;;;1.48;80.98
77572;BME280;67214;47.454;18.966;2023-11-19T00:37:42;100842.09;;;1.51;81.11
77572;BME280;67214;47.454;18.966;2023-11-19T00:40:12;100835.03;;;1.42;81.48
77572;BME280;67214;47.454;18.966;2023-11-19T00:42:40;100824.69;;;1.38;81.67
77572;BME280;67214;47.454;18.966;2023-11-19T00:45:08;100813.12;;;1.46;81.63
77572;BME280;67214;47.454;18.966;2023-11-19T00:47:36;100803.70;;;1.40;81.77
77572;BME280;67214;47.454;18.966;2023-11-19T00:50:03;100805.42;;;1.41;81.95
77572;BME280;67214;47.454;18.966;2023-11-19T00:52:31;100816.58;;;1.33;82.05
77572;BME280;67214;47.454;18.966;2023-11-19T00:54:58;100810.64;;;1.28;82.28
77572;BME280;67214;47.454;18.966;2023-11-19T00:57:26;100809.06;;;1.22;82.50
77572;BME280;67214;47.454;18.966;2023-11-19T00:59:53;100809.27;;;1.16;82.87
77572;BME280;67214;47.454;18.966;2023-11-19T01:02:21;100798.93;;;1.13;83.13
77572;BME280;67214;47.454;18.966;2023-11-19T01:04:48;100800.69;;;1.13;83.44
77572;BME280;67214;47.454;18.966;2023-11-19T01:07:16;100800.31;;;1.10;83.65
77572;BME280;67214;47.454;18.966;2023-11-19T01:09:43;100804.30;;;1.09;83.81
77572;BME280;67214;47.454;18.966;2023-11-19T01:12:11;100812.58;;;1.08;84.00
77572;BME280;67214;47.454;18.966;2023-11-19T01:14:39;100812.06;;;1.10;84.08
77572;BME280;67214;47.454;18.966;2023-11-19T01:17:06;100818.70;;;1.07;83.99
77572;BME280;67214;47.454;18.966;2023-11-19T01:19:35;100812.27;;;1.04;84.13
77572;BME280;67214;47.454;18.966;2023-11-19T01:22:02;100807.94;;;1.03;84.22
77572;BME280;67214;47.454;18.966;2023-11-19T01:24:30;100809.35;;;1.00;84.20
77572;BME280;67214;47.454;18.966;2023-11-19T01:26:57;100806.39;;;0.98;84.22
77572;BME280;67214;47.454;18.966;2023-11-19T01:29:26;100790.25;;;0.98;84.44
77572;BME280;67214;47.454;18.966;2023-11-19T01:31:53;100803.95;;;0.91;84.27
77572;BME280;67214;47.454;18.966;2023-11-19T01:34:21;100805.09;;;0.98;84.32
77572;BME280;67214;47.454;18.966;2023-11-19T01:36:48;100808.08;;;0.85;84.49
77572;BME280;67214;47.454;18.966;2023-11-19T01:39:16;100806.46;;;0.81;84.99
77572;BME280;67214;47.454;18.966;2023-11-19T01:41:43;100795.92;;;0.84;85.14
77572;BME280;67214;47.454;18.966;2023-11-19T01:44:11;100807.22;;;0.85;85.32
77572;BME280;67214;47.454;18.966;2023-11-19T01:46:41;100802.13;;;0.80;85.33
77572;BME280;67214;47.454;18.966;2023-11-19T01:49:09;100796.19;;;0.75;85.61
77572;BME280;67214;47.454;18.966;2023-11-19T01:51:39;100794.44;;;0.76;85.83
77572;BME280;67214;47.454;18.966;2023-11-19T01:54:07;100788.39;;;0.74;86.10
77572;BME280;67214;47.454;18.966;2023-11-19T01:56:36;100774.10;;;0.72;86.13
77572;BME280;67214;47.454;18.966;2023-11-19T01:59:07;100769.33;;;0.72;86.31
77572;BME280;67214;47.454;18.966;2023-11-19T02:01:36;100772.42;;;0.70;86.42
77572;BME280;67214;47.454;18.966;2023-11-19T02:04:07;100760.23;;;0.70;86.70
77572;BME280;67214;47.454;18.966;2023-11-19T02:06:37;100759.92;;;0.66;86.64
77572;BME280;67214;47.454;18.966;2023-11-19T02:09:06;100747.55;;;0.58;86.73
77572;BME280;67214;47.454;18.966;2023-11-19T02:11:35;100749.37;;;0.56;87.15
77572;BME280;67214;47.454;18.966;2023-11-19T02:14:02;100750.84;;;0.50;87.35
77572;BME280;67214;47.454;18.966;2023-11-19T02:16:30;100755.30;;;0.46;87.47
77572;BME280;67214;47.454;18.966;2023-11-19T02:18:58;100756.16;;;0.47;87.62
77572;BME280;67214;47.454;18.966;2023-11-19T02:21:25;100757.25;;;0.40;87.65
77572;BME280;67214;47.454;18.966;2023-11-19T02:23:53;100752.92;;;0.39;87.68
77572;BME280;67214;47.454;18.966;2023-11-19T02:26:34;100744.34;;;0.35;87.91
77572;BME280;67214;47.454;18.966;2023-11-19T02:29:02;100735.14;;;0.37;88.04
77572;BME280;67214;47.454;18.966;2023-11-19T02:31:29;100742.63;;;0.34;87.96
77572;BME280;67214;47.454;18.966;2023-11-19T02:33:56;100754.88;;;0.32;88.04
77572;BME280;67214;47.454;18.966;2023-11-19T02:36:26;100756.30;;;0.28;87.70
77572;BME280;67214;47.454;18.966;2023-11-19T02:38:53;100765.98;;;0.24;87.94
77572;BME280;67214;47.454;18.966;2023-11-19T02:41:21;100757.30;;;0.24;88.50
77572;BME280;67214;47.454;18.966;2023-11-19T02:43:49;100748.52;;;0.26;88.87
77572;BME280;67214;47.454;18.966;2023-11-19T02:46:16;100745.11;;;0.24;89.07
77572;BME280;67214;47.454;18.966;2023-11-19T02:48:44;100742.63;;;0.20;89.32
77572;BME280;67214;47.454;18.966;2023-11-19T02:51:12;100728.67;;;0.21;89.28
77572;BME280;67214;47.454;18.966;2023-11-19T02:53:39;100719.16;;;0.20;89.23
77572;BME280;67214;47.454;18.966;2023-11-19T02:56:08;100724.25;;;0.24;89.16
77572;BME280;67214;47.454;18.966;2023-11-19T02:58:40;100721.67;;;0.23;88.90
77572;BME280;67214;47.454;18.966;2023-11-19T03:01:08;100721.77;;;0.20;88.74
77572;BME280;67214;47.454;18.966;2023-11-19T03:03:43;100709.30;;;0.15;88.78
77572;BME280;67214;47.454;18.966;2023-11-19T03:06:12;100716.27;;;0.14;89.03
77572;BME280;67214;47.454;18.966;2023-11-19T03:08:39;100705.42;;;0.13;89.17
77572;BME280;67214;47.454;18.966;2023-11-19T03:11:07;100707.66;;;0.12;89.13
77572;BME280;67214;47.454;18.966;2023-11-19T03:13:35;100710.48;;;0.19;89.41
77572;BME280;67214;47.454;18.966;2023-11-19T03:16:02;100715.02;;;0.27;89.45
77572;BME280;67214;47.454;18.966;2023-11-19T03:18:30;100706.20;;;0.31;89.19
77572;BME280;67214;47.454;18.966;2023-11-19T03:20:57;100694.56;;;0.28;88.88
77572;BME280;67214;47.454;18.966;2023-11-19T03:23:25;100698.52;;;0.27;88.95
77572;BME280;67214;47.454;18.966;2023-11-19T03:25:54;100702.39;;;0.28;89.00
77572;BME280;67214;47.454;18.966;2023-11-19T03:28:23;100701.56;;;0.26;88.84
77572;BME280;67214;47.454;18.966;2023-11-19T03:30:51;100699.81;;;0.27;88.66
77572;BME280;67214;47.454;18.966;2023-11-19T03:33:19;100689.09;;;0.08;88.69
77572;BME280;67214;47.454;18.966;2023-11-19T03:35:46;100697.96;;;0.01;88.98
77572;BME280;67214;47.454;18.966;2023-11-19T03:38:14;100694.47;;;0.02;89.00
77572;BME280;67214;47.454;18.966;2023-11-19T03:40:41;100694.55;;;0.14;88.64
77572;BME280;67214;47.454;18.966;2023-11-19T03:43:09;100679.03;;;0.09;88.62
77572;BME280;67214;47.454;18.966;2023-11-19T03:45:36;100679.48;;;0.09;88.66
77572;BME280;67214;47.454;18.966;2023-11-19T03:48:04;100669.48;;;-0.05;89.10
77572;BME280;67214;47.454;18.966;2023-11-19T03:50:31;100663.00;;;-0.07;89.30
77572;BME280;67214;47.454;18.966;2023-11-19T03:52:59;100662.10;;;-0.06;89.11
77572;BME280;67214;47.454;18.966;2023-11-19T03:55:27;100653.55;;;-0.11;89.28
77572;BME280;67214;47.454;18.966;2023-11-19T03:57:55;100652.16;;;-0.08;89.34
77572;BME280;67214;47.454;18.966;2023-11-19T04:00:23;100658.19;;;-0.06;89.25
77572;BME280;67214;47.454;18.966;2023-11-19T04:02:50;100649.99;;;-0.08;89.04
77572;BME280;67214;47.454;18.966;2023-11-19T04:05:19;100654.55;;;-0.15;89.39
77572;BME280;67214;47.454;18.966;2023-11-19T04:07:46;100642.78;;;-0.13;89.25
77572;BME280;67214;47.454;18.966;2023-11-19T04:10:14;100625.91;;;-0.16;89.24
77572;BME280;67214;47.454;18.966;2023-11-19T04:12:42;100629.05;;;-0.20;89.22
77572;BME280;67214;47.454;18.966;2023-11-19T04:15:11;100630.42;;;-0.21;89.45
77572;BME280;67214;47.454;18.966;2023-11-19T04:17:39;100631.86;;;-0.26;89.68
77572;BME280;67214;47.454;18.966;2023-11-19T04:20:07;100633.51;;;-0.23;89.84
77572;BME280;67214;47.454;18.966;2023-11-19T04:22:36;100631.44;;;-0.27;89.71
77572;BME280;67214;47.454;18.966;2023-11-19T04:25:04;100628.42;;;-0.28;89.71
77572;BME280;67214;47.454;18.966;2023-11-19T04:27:31;100608.62;;;-0.33;89.64
77572;BME280;67214;47.454;18.966;2023-11-19T04:29:59;100620.92;;;-0.38;89.65
77572;BME280;67214;47.454;18.966;2023-11-19T04:32:28;100618.00;;;-0.42;89.79
77572;BME280;67214;47.454;18.966;2023-11-19T04:34:55;100616.19;;;-0.40;89.89
77572;BME280;67214;47.454;18.966;2023-11-19T04:37:23;100613.75;;;-0.45;89.92
77572;BME280;67214;47.454;18.966;2023-11-19T04:39:50;100615.08;;;-0.47;90.01
77572;BME280;67214;47.454;18.966;2023-11-19T04:42:18;100618.16;;;-0.49;90.20
77572;BME280;67214;47.454;18.966;2023-11-19T04:44:46;100625.18;;;-0.51;90.25
77572;BME280;67214;47.454;18.966;2023-11-19T04:47:13;100637.05;;;-0.57;90.56
77572;BME280;67214;47.454;18.966;2023-11-19T04:49:41;100640.52;;;-0.56;90.69
77572;BME280;67214;47.454;18.966;2023-11-19T04:52:11;100635.28;;;-0.55;90.81
77572;BME280;67214;47.454;18.966;2023-11-19T04:54:42;100655.23;;;-0.54;91.03
77572;BME280;67214;47.454;18.966;2023-11-19T04:57:10;100655.23;;;-0.54;90.96
77572;BME280;67214;47.454;18.966;2023-11-19T04:59:38;100655.11;;;-0.49;90.93
77572;BME280;67214;47.454;18.966;2023-11-19T05:02:06;100650.16;;;-0.43;90.87
77572;BME280;67214;47.454;18.966;2023-11-19T05:04:34;100653.78;;;-0.33;90.56
77572;BME280;67214;47.454;18.966;2023-11-19T05:07:01;100637.73;;;-0.34;90.55
77572;BME280;67214;47.454;18.966;2023-11-19T05:09:29;100632.11;;;-0.35;90.47
77572;BME280;67214;47.454;18.966;2023-11-19T05:11:57;100639.89;;;-0.33;90.64
77572;BME280;67214;47.454;18.966;2023-11-19T05:14:24;100627.31;;;-0.34;90.81
77572;BME280;67214;47.454;18.966;2023-11-19T05:16:52;100639.83;;;-0.32;91.07
77572;BME280;67214;47.454;18.966;2023-11-19T05:19:19;100648.41;;;-0.28;91.26
77572;BME280;67214;47.454;18.966;2023-11-19T05:21:47;100649.97;;;-0.21;91.26
77572;BME280;67214;47.454;18.966;2023-11-19T05:24:16;100654.33;;;-0.22;90.94
77572;BME280;67214;47.454;18.966;2023-11-19T05:26:43;100650.63;;;-0.15;90.36
77572;BME280;67214;47.454;18.966;2023-11-19T05:29:11;100639.03;;;-0.19;90.05
77572;BME280;67214;47.454;18.966;2023-11-19T05:31:38;100634.36;;;-0.23;90.12
77572;BME280;67214;47.454;18.966;2023-11-19T05:34:06;100635.54;;;-0.18;90.41
77572;BME280;67214;47.454;18.966;2023-11-19T05:36:33;100620.80;;;-0.19;90.57
77572;BME280;67214;47.454;18.966;2023-11-19T05:39:01;100620.56;;;-0.12;90.38
77572;BME280;67214;47.454;18.966;2023-11-19T05:41:29;100622.69;;;-0.10;90.09
77572;BME280;67214;47.454;18.966;2023-11-19T05:43:56;100632.29;;;-0.12;90.18
77572;BME280;67214;47.454;18.966;2023-11-19T05:46:24;100635.98;;;-0.19;90.04
77572;BME280;67214;47.454;18.966;2023-11-19T05:48:53;100633.69;;;-0.15;90.00
77572;BME280;67214;47.454;18.966;2023-11-19T05:51:20;100632.84;;;-0.15;89.93
77572;BME280;67214;47.454;18.966;2023-11-19T05:53:50;100622.85;;;-0.16;90.24
77572;BME280;67214;47.454;18.966;2023-11-19T05:56:17;100635.00;;;-0.15;90.21
77572;BME280;67214;47.454;18.966;2023-11-19T05:58:46;100630.45;;;-0.23;90.41
77572;BME280;67214;47.454;18.966;2023-11-19T06:01:15;100632.11;;;-0.20;90.38
77572;BME280;67214;47.454;18.966;2023-11-19T06:03:43;100633.06;;;-0.23;90.56
77572;BME280;67214;47.454;18.966;2023-11-19T06:06:12;100633.28;;;-0.16;90.37
77572;BME280;67214;47.454;18.966;2023-11-19T06:08:39;100625.59;;;-0.20;90.43
77572;BME280;67214;47.454;18.966;2023-11-19T06:11:09;100620.31;;;-0.17;90.47
77572;BME280;67214;47.454;18.966;2023-11-19T06:13:38;100615.89;;;-0.15;90.61
77572;BME280;67214;47.454;18.966;2023-11-19T06:16:06;100618.33;;;-0.09;90.56
77572;BME280;67214;47.454;18.966;2023-11-19T06:18:34;100614.23;;;-0.03;90.50
77572;BME280;67214;47.454;18.966;2023-11-19T06:21:01;100616.35;;;-0.01;90.07
77572;BME280;67214;47.454;18.966;2023-11-19T06:23:29;100615.77;;;0.04;90.03
77572;BME280;67214;47.454;18.966;2023-11-19T06:25:56;100614.30;;;0.09;89.60
77572;BME280;67214;47.454;18.966;2023-11-19T06:28:24;100596.87;;;0.11;89.56
77572;BME280;67214;47.454;18.966;2023-11-19T06:30:52;100594.30;;;0.09;89.17
77572;BME280;67214;47.454;18.966;2023-11-19T06:33:19;100591.41;;;0.18;89.17
77572;BME280;67214;47.454;18.966;2023-11-19T06:35:46;100590.28;;;0.27;89.23
77572;BME280;67214;47.454;18.966;2023-11-19T06:38:15;100577.73;;;0.38;89.14
77572;BME280;67214;47.454;18.966;2023-11-19T06:40:43;100590.16;;;0.44;88.51
77572;BME280;67214;47.454;18.966;2023-11-19T06:43:10;100588.52;;;0.54;87.77
77572;BME280;67214;47.454;18.966;2023-11-19T06:45:38;100580.36;;;0.64;87.72
77572;BME280;67214;47.454;18.966;2023-11-19T06:48:06;100597.55;;;0.70;87.11
77572;BME280;67214;47.454;18.966;2023-11-19T06:50:33;100584.80;;;0.74;86.56
77572;BME280;67214;47.454;18.966;2023-11-19T06:53:01;100579.28;;;0.83;85.81
77572;BME280;67214;47.454;18.966;2023-11-19T06:55:28;100580.70;;;0.80;85.87
77572;BME280;67214;47.454;18.966;2023-11-19T06:57:56;100584.95;;;0.82;86.13
77572;BME280;67214;47.454;18.966;2023-11-19T07:00:24;100567.76;;;0.77;85.99
77572;BME280;67214;47.454;18.966;2023-11-19T07:02:51;100572.23;;;0.73;86.64
77572;BME280;67214;47.454;18.966;2023-11-19T07:05:19;100573.91;;;0.74;86.63
77572;BME280;67214;47.454;18.966;2023-11-19T07:07:46;100570.24;;;0.93;85.91
77572;BME280;67214;47.454;18.966;2023-11-19T07:10:14;100575.08;;;1.04;85.92
77572;BME280;67214;47.454;18.966;2023-11-19T07:12:41;100566.86;;;1.14;85.77
77572;BME280;67214;47.454;18.966;2023-11-19T07:15:09;100573.06;;;1.23;85.54
77572;BME280;67214;47.454;18.966;2023-11-19T07:17:38;100579.44;;;1.28;85.17
77572;BME280;67214;47.454;18.966;2023-11-19T07:20:07;100572.98;;;1.38;84.78
77572;BME280;67214;47.454;18.966;2023-11-19T07:22:34;100571.68;;;1.50;84.07
77572;BME280;67214;47.454;18.966;2023-11-19T07:25:04;100569.47;;;1.51;83.93
77572;BME280;67214;47.454;18.966;2023-11-19T07:27:32;100575.77;;;1.57;83.86
77572;BME280;67214;47.454;18.966;2023-11-19T07:29:59;100575.14;;;1.73;83.07
77572;BME280;67214;47.454;18.966;2023-11-19T07:32:26;100568.76;;;1.80;83.00
77572;BME280;67214;47.454;18.966;2023-11-19T07:34:54;100569.16;;;1.81;82.61
77572;BME280;67214;47.454;18.966;2023-11-19T07:37:22;100570.06;;;1.80;82.78
77572;BME280;67214;47.454;18.966;2023-11-19T07:39:50;100574.91;;;1.91;83.23
77572;BME280;67214;47.454;18.966;2023-11-19T07:42:17;100564.19;;;1.97;83.37
77572;BME280;67214;47.454;18.966;2023-11-19T07:44:45;100570.42;;;2.05;83.78
77572;BME280;67214;47.454;18.966;2023-11-19T07:47:12;100567.18;;;2.10;83.75
77572;BME280;67214;47.454;18.966;2023-11-19T07:49:40;100576.30;;;2.21;82.88
77572;BME280;67214;47.454;18.966;2023-11-19T07:52:09;100587.95;;;2.24;82.23
77572;BME280;67214;47.454;18.966;2023-11-19T07:54:36;100583.08;;;2.27;82.24
77572;BME280;67214;47.454;18.966;2023-11-19T07:57:04;100593.36;;;2.31;82.34
77572;BME280;67214;47.454;18.966;2023-11-19T07:59:31;100580.42;;;2.39;82.10
77572;BME280;67214;47.454;18.966;2023-11-19T08:01:59;100580.55;;;2.46;82.35
77572;BME280;67214;47.454;18.966;2023-11-19T08:04:26;100565.30;;;2.45;82.53
77572;BME280;67214;47.454;18.966;2023-11-19T08:06:54;100567.42;;;2.47;82.92
77572;BME280;67214;47.454;18.966;2023-11-19T08:09:21;100565.92;;;2.52;81.92
77572;BME280;67214;47.454;18.966;2023-11-19T08:11:49;100563.95;;;2.57;82.09
77572;BME280;67214;47.454;18.966;2023-11-19T08:14:17;100559.83;;;2.61;81.81
77572;BME280;67214;47.454;18.966;2023-11-19T08:16:44;100547.01;;;2.65;81.65
77572;BME280;67214;47.454;18.966;2023-11-19T08:19:12;100526.86;;;2.67;81.46
77572;BME280;67214;47.454;18.966;2023-11-19T08:21:41;100522.34;;;2.71;81.59
77572;BME280;67214;47.454;18.966;2023-11-19T08:24:08;100507.30;;;2.76;81.47
77572;BME280;67214;47.454;18.966;2023-11-19T08:26:35;100517.95;;;2.81;80.93
77572;BME280;67214;47.454;18.966;2023-11-19T08:29:03;100488.03;;;2.87;80.68
77572;BME280;67214;47.454;18.966;2023-11-19T08:31:30;100485.61;;;2.93;80.65
77572;BME280;67214;47.454;18.966;2023-11-19T08:33:58;100488.31;;;2.81;81.29
77572;BME280;67214;47.454;18.966;2023-11-19T08:36:25;100528.05;;;2.80;81.07
77572;BME280;67214;47.454;18.966;2023-11-19T08:38:54;100539.63;;;2.75;81.61
77572;BME280;67214;47.454;18.966;2023-11-19T08:41:22;100523.78;;;2.78;81.22
77572;BME280;67214;47.454;18.966;2023-11-19T08:43:49;100504.15;;;2.88;80.90
77572;BME280;67214;47.454;18.966;2023-11-19T08:46:17;100509.78;;;2.89;81.49
77572;BME280;67214;47.454;18.966;2023-11-19T08:48:45;100499.94;;;2.94;81.39
77572;BME280;67214;47.454;18.966;2023-11-19T08:51:13;100494.50;;;2.99;81.80
77572;BME280;67214;47.454;18.966;2023-11-19T08:53:40;100472.73;;;3.07;81.29
77572;BME280;67214;47.454;18.966;2023-11-19T08:56:08;100518.42;;;3.01;81.35
77572;BME280;67214;47.454;18.966;2023-11-19T08:58:35;100512.69;;;3.12;81.49
77572;BME280;67214;47.454;18.966;2023-11-19T09:01:03;100482.06;;;3.22;81.35
77572;BME280;67214;47.454;18.966;2023-11-19T09:03:32;100505.08;;;3.26;80.19
77572;BME280;67214;47.454;18.966;2023-11-19T09:06:00;100515.11;;;3.16;80.54
77572;BME280;67214;47.454;18.966;2023-11-19T09:08:28;100506.00;;;3.25;80.41
77572;BME280;67214;47.454;18.966;2023-11-19T09:10:55;100495.67;;;3.31;80.67
77572;BME280;67214;47.454;18.966;2023-11-19T09:13:23;100503.48;;;3.32;80.98
77572;BME280;67214;47.454;18.966;2023-11-19T09:15:50;100506.41;;;3.35;81.40
77572;BME280;67214;47.454;18.966;2023-11-19T09:18:18;100507.91;;;3.40;80.96
77572;BME280;67214;47.454;18.966;2023-11-19T09:20:45;100523.12;;;3.42;80.80
77572;BME280;67214;47.454;18.966;2023-11-19T09:23:13;100520.16;;;3.40;79.63
77572;BME280;67214;47.454;18.966;2023-11-19T09:25:40;100512.84;;;3.38;79.78
77572;BME280;67214;47.454;18.966;2023-11-19T09:28:08;100505.79;;;3.30;78.96
77572;BME280;67214;47.454;18.966;2023-11-19T09:30:35;100515.88;;;3.28;78.36
77572;BME280;67214;47.454;18.966;2023-11-19T09:33:03;100513.96;;;3.32;78.36
77572;BME280;67214;47.454;18.966;2023-11-19T09:35:31;100520.72;;;3.27;78.89
77572;BME280;67214;47.454;18.966;2023-11-19T09:37:59;100519.35;;;3.29;79.04
77572;BME280;67214;47.454;18.966;2023-11-19T09:40:26;100499.61;;;3.31;79.16
77572;BME280;67214;47.454;18.966;2023-11-19T09:42:54;100485.33;;;3.38;78.92
77572;BME280;67214;47.454;18.966;2023-11-19T09:45:24;100479.88;;;3.42;78.62
77572;BME280;67214;47.454;18.966;2023-11-19T09:47:53;100468.88;;;3.53;78.55
77572;BME280;67214;47.454;18.966;2023-11-19T09:50:23;100468.20;;;3.58;77.92
77572;BME280;67214;47.454;18.966;2023-11-19T09:52:51;100466.53;;;3.65;78.06
77572;BME280;67214;47.454;18.966;2023-11-19T09:55:19;100476.50;;;3.76;77.94
77572;BME280;67214;47.454;18.966;2023-11-19T09:57:48;100472.75;;;3.82;78.12
77572;BME280;67214;47.454;18.966;2023-11-19T10:00:17;100468.20;;;3.85;77.19
77572;BME280;67214;47.454;18.966;2023-11-19T10:02:47;100463.20;;;3.89;76.99
77572;BME280;67214;47.454;18.966;2023-11-19T10:05:16;100445.98;;;3.92;76.73
77572;BME280;67214;47.454;18.966;2023-11-19T10:07:43;100453.64;;;3.97;77.08
77572;BME280;67214;47.454;18.966;2023-11-19T10:10:11;100452.50;;;4.02;77.62
77572;BME280;67214;47.454;18.966;2023-11-19T10:12:41;100438.37;;;4.05;77.14
77572;BME280;67214;47.454;18.966;2023-11-19T10:15:12;100431.75;;;4.15;77.03
77572;BME280;67214;47.454;18.966;2023-11-19T10:17:39;100437.46;;;4.14;76.73
77572;BME280;67214;47.454;18.966;2023-11-19T10:20:08;100426.41;;;4.16;77.08
77572;BME280;67214;47.454;18.966;2023-11-19T10:22:39;100421.26;;;4.24;76.09
77572;BME280;67214;47.454;18.966;2023-11-19T10:25:27;100418.08;;;4.26;76.67
77572;BME280;67214;47.454;18.966;2023-11-19T10:27:56;100420.70;;;4.26;76.46
77572;BME280;67214;47.454;18.966;2023-11-19T10:30:30;100408.14;;;4.24;76.40
77572;BME280;67214;47.454;18.966;2023-11-19T10:33:08;100397.38;;;4.28;76.81
77572;BME280;67214;47.454;18.966;2023-11-19T10:35:37;100407.88;;;4.37;76.16
77572;BME280;67214;47.454;18.966;2023-11-19T10:38:15;100407.64;;;4.33;75.38
77572;BME280;67214;47.454;18.966;2023-11-19T10:40:42;100401.54;;;4.41;75.38
77572;BME280;67214;47.454;18.966;2023-11-19T10:43:11;100403.02;;;4.46;75.87
77572;BME280;67214;47.454;18.966;2023-11-19T10:45:38;100406.03;;;4.47;75.98
77572;BME280;67214;47.454;18.966;2023-11-19T10:48:06;100398.16;;;4.47;76.28
77572;BME280;67214;47.454;18.966;2023-11-19T10:50:38;100404.72;;;4.47;76.83
77572;BME280;67214;47.454;18.966;2023-11-19T10:53:08;100410.37;;;4.40;75.83
77572;BME280;67214;47.454;18.966;2023-11-19T10:55:37;100397.70;;;4.39;75.45
77572;BME280;67214;47.454;18.966;2023-11-19T10:58:07;100405.41;;;4.34;76.34
77572;BME280;67214;47.454;18.966;2023-11-19T11:00:48;100392.35;;;4.32;76.67
77572;BME280;67214;47.454;18.966;2023-11-19T11:03:24;100386.12;;;4.35;76.84
77572;BME280;67214;47.454;18.966;2023-11-19T11:05:50;100387.03;;;4.34;76.74
77572;BME280;67214;47.454;18.966;2023-11-19T11:08:19;100377.55;;;4.31;76.26
77572;BME280;67214;47.454;18.966;2023-11-19T11:10:55;100372.43;;;4.37;76.65
77572;BME280;67214;47.454;18.966;2023-11-19T11:13:25;100368.09;;;4.44;75.77
77572;BME280;67214;47.454;18.966;2023-11-19T11:15:56;100351.02;;;4.53;75.21
77572;BME280;67214;47.454;18.966;2023-11-19T11:18:27;100336.26;;;4.59;75.50
77572;BME280;67214;47.454;18.966;2023-11-19T11:21:07;100337.45;;;4.69;75.12
77572;BME280;67214;47.454;18.966;2023-11-19T11:23:53;100342.17;;;4.71;76.05
77572;BME280;67214;47.454;18.966;2023-11-19T11:26:39;100337.98;;;4.76;76.33
77572;BME280;67214;47.454;18.966;2023-11-19T11:29:24;100329.01;;;4.80;76.54
77572;BME280;67214;47.454;18.966;2023-11-19T11:37:30;100349.92;;;4.81;78.27
77572;BME280;67214;47.454;18.966;2023-11-19T11:39:52;100348.34;;;4.70;78.48
77572;BME280;67214;47.454;18.966;2023-11-19T11:45:03;100338.41;;;4.68;78.36
77572;BME280;67214;47.454;18.966;2023-11-19T11:50:20;100320.26;;;4.63;78.77
77572;BME280;67214;47.454;18.966;2023-11-19T11:58:01;100306.33;;;4.86;79.38
77572;BME280;67214;47.454;18.966;2023-11-19T12:00:33;100310.34;;;4.93;78.43
77572;BME280;67214;47.454;18.966;2023-11-19T12:03:05;100305.30;;;4.97;77.78
77572;BME280;67214;47.454;18.966;2023-11-19T12:05:35;100296.91;;;4.97;79.05
77572;BME280;67214;47.454;18.966;2023-11-19T12:08:04;100292.98;;;4.97;78.82
77572;BME280;67214;47.454;18.966;2023-11-19T12:10:45;100294.14;;;5.00;78.62
77572;BME280;67214;47.454;18.966;2023-11-19T12:13:07;100290.56;;;5.01;78.71
77572;BME280;67214;47.454;18.966;2023-11-19T12:18:30;100268.09;;;5.11;78.49
77572;BME280;67214;47.454;18.966;2023-11-19T12:20:59;100261.25;;;5.09;78.90
77572;BME280;67214;47.454;18.966;2023-11-19T12:23:31;100266.06;;;5.17;78.91
77572;BME280;67214;47.454;18.966;2023-11-19T12:25:59;100261.02;;;5.21;78.81
77572;BME280;67214;47.454;18.966;2023-11-19T12:28:27;100257.95;;;5.28;79.67
77572;BME280;67214;47.454;18.966;2023-11-19T12:31:07;100259.92;;;5.32;78.08
77572;BME280;67214;47.454;18.966;2023-11-19T12:33:25;100253.28;;;5.33;77.13
77572;BME280;67214;47.454;18.966;2023-11-19T12:35:53;100239.54;;;5.28;77.80
77572;BME280;67214;47.454;18.966;2023-11-19T12:38:26;100227.23;;;5.22;78.17
77572;BME280;67214;47.454;18.966;2023-11-19T12:41:09;100227.37;;;5.19;77.64
77572;BME280;67214;47.454;18.966;2023-11-19T12:43:41;100229.34;;;5.15;78.42
77572;BME280;67214;47.454;18.966;2023-11-19T12:46:22;100219.19;;;5.09;77.58
77572;BME280;67214;47.454;18.966;2023-11-19T12:48:50;100231.95;;;5.08;77.92
77572;BME280;67214;47.454;18.966;2023-11-19T12:51:18;100214.94;;;5.06;77.71
77572;BME280;67214;47.454;18.966;2023-11-19T12:53:53;100200.09;;;5.05;77.88
77572;BME280;67214;47.454;18.966;2023-11-19T12:56:25;100199.55;;;5.07;78.45
77572;BME280;67214;47.454;18.966;2023-11-19T12:58:52;100187.06;;;5.04;77.77
77572;BME280;67214;47.454;18.966;2023-11-19T13:01:20;100189.77;;;5.02;77.13
77572;BME280;67214;47.454;18.966;2023-11-19T13:03:48;100189.22;;;5.04;77.56
77572;BME280;67214;47.454;18.966;2023-11-19T13:06:17;100195.28;;;4.98;76.43
77572;BME280;67214;47.454;18.966;2023-11-19T13:08:48;100194.14;;;4.95;76.73
77572;BME280;67214;47.454;18.966;2023-11-19T13:11:40;100200.51;;;4.91;76.68
77572;BME280;67214;47.454;18.966;2023-11-19T13:14:04;100206.80;;;4.88;76.96